createdAt,value
2022-08-02T00:00:36.598Z,78.25
2022-08-02T00:03:08.102Z,77.86
2022-08-02T00:05:40.328Z,77.11
2022-08-02T00:08:09.492Z,78.76
2022-08-02T00:10:36.207Z,79.83
2022-08-02T00:13:04.036Z,80.83
2022-08-02T00:15:30.751Z,80.46
2022-08-02T00:17:59.828Z,80.69
2022-08-02T00:20:26.415Z,82.46
2022-08-02T00:22:55.343Z,84.04
2022-08-02T00:25:22.426Z,83.20
2022-08-02T00:27:48.961Z,82.88
2022-08-02T00:30:15.596Z,83.59
2022-08-02T00:32:42.130Z,83.99
2022-08-02T00:35:09.119Z,83.46
2022-08-02T00:37:39.351Z,84.13
2022-08-02T00:40:06.688Z,84.54
2022-08-02T00:42:33.296Z,85.07
2022-08-02T00:45:00.297Z,85.26
2022-08-02T00:47:29.248Z,85.77
2022-08-02T00:49:58.272Z,86.04
2022-08-02T00:52:25.200Z,86.05
2022-08-02T00:54:51.877Z,86.27
2022-08-02T00:57:18.538Z,86.79
2022-08-02T00:59:45.289Z,86.99
2022-08-02T01:02:12.270Z,86.91
2022-08-02T01:04:39.378Z,86.34
2022-08-02T01:07:12.877Z,86.57
2022-08-02T01:09:45.034Z,87.04
2022-08-02T01:12:14.598Z,87.32
2022-08-02T01:14:48.545Z,87.60
2022-08-02T01:17:45.023Z,87.84
2022-08-02T01:20:19.816Z,87.42
2022-08-02T01:23:03.051Z,88.42
2022-08-02T01:25:48.379Z,88.43
2022-08-02T01:28:30.345Z,88.45
2022-08-02T01:31:12.725Z,88.93
2022-08-02T01:33:45.979Z,89.83
2022-08-02T01:36:17.658Z,88.99
2022-08-02T01:38:48.292Z,89.53
2022-08-02T01:41:24.421Z,89.54
2022-08-02T01:43:58.295Z,89.65
2022-08-02T01:46:29.117Z,88.71
2022-08-02T01:49:01.743Z,89.50
2022-08-02T01:51:47.848Z,89.99
2022-08-02T01:54:21.917Z,89.90
2022-08-02T01:56:50.207Z,91.19
2022-08-02T01:59:24.276Z,89.56
2022-08-02T02:01:55.650Z,90.46
2022-08-02T02:04:26.645Z,89.52
2022-08-02T02:06:54.981Z,90.27
2022-08-02T02:09:25.705Z,90.88
2022-08-02T02:12:11.834Z,90.98
2022-08-02T02:14:49.266Z,93.11
2022-08-02T02:18:10.677Z,92.48
2022-08-02T02:20:15.450Z,92.17
2022-08-02T02:22:44.881Z,94.21
2022-08-02T02:25:18.084Z,92.73
2022-08-02T02:28:05.086Z,93.92
2022-08-02T02:30:33.839Z,93.01
2022-08-02T02:33:02.878Z,94.34
2022-08-02T02:35:33.015Z,93.98
2022-08-02T02:38:02.543Z,93.72
2022-08-02T02:40:29.626Z,94.20
2022-08-02T02:43:00.624Z,93.99
2022-08-02T02:45:31.165Z,95.02
2022-08-02T02:48:02.993Z,95.17
2022-08-02T02:50:33.587Z,95.22
2022-08-02T02:53:07.440Z,95.02
2022-08-02T02:55:34.487Z,95.16
2022-08-02T02:58:02.915Z,95.57
2022-08-02T03:00:48.750Z,95.67
2022-08-02T03:03:19.703Z,95.11
2022-08-02T03:05:48.607Z,95.87
2022-08-02T03:08:15.363Z,96.06
2022-08-02T03:10:46.230Z,95.53
2022-08-02T03:13:13.442Z,96.44
2022-08-02T03:15:40.519Z,95.94
2022-08-02T03:18:10.014Z,95.73
2022-08-02T03:20:39.412Z,96.35
2022-08-02T03:23:07.140Z,96.71
2022-08-02T03:25:36.761Z,96.58
2022-08-02T03:28:04.014Z,96.32
2022-08-02T03:30:35.466Z,96.56
2022-08-02T03:33:02.183Z,96.34
2022-08-02T03:35:31.057Z,96.17
2022-08-02T03:37:58.320Z,96.16
2022-08-02T03:40:25.502Z,96.63
2022-08-02T03:42:56.863Z,97.12
2022-08-02T03:45:25.886Z,97.13
2022-08-02T03:47:52.596Z,97.99
2022-08-02T03:50:20.012Z,97.39
2022-08-02T03:52:47.960Z,97.48
2022-08-02T03:55:15.187Z,98.40
2022-08-02T03:57:43.101Z,97.89
2022-08-02T04:00:18.289Z,98.50
2022-08-02T04:02:44.860Z,98.37
2022-08-02T04:05:13.679Z,99.15
2022-08-02T04:08:33.081Z,98.45
2022-08-02T04:10:29.733Z,97.92
2022-08-02T04:13:02.643Z,98.03
2022-08-02T04:15:31.758Z,98.17
2022-08-02T04:18:00.151Z,97.59
2022-08-02T04:20:33.206Z,97.58
2022-08-02T04:23:12.628Z,96.70
2022-08-02T04:25:42.755Z,97.98
2022-08-02T04:28:16.907Z,97.24
2022-08-02T04:30:49.676Z,97.13
2022-08-02T04:33:17.180Z,97.53
2022-08-02T04:35:44.641Z,97.58
2022-08-02T04:38:15.481Z,97.91
2022-08-02T04:40:55.343Z,98.74
2022-08-02T04:43:22.576Z,97.93
2022-08-02T04:45:52.705Z,97.13
2022-08-02T04:48:25.438Z,98.13
2022-08-02T04:50:54.673Z,99.51
2022-08-02T04:53:21.228Z,96.74
2022-08-02T04:55:47.853Z,97.10
2022-08-02T04:58:40.874Z,97.53
2022-08-02T05:01:03.630Z,97.77
2022-08-02T05:03:30.531Z,97.89
2022-08-02T05:06:00.649Z,98.82
2022-08-02T05:08:27.308Z,97.48
2022-08-02T05:10:53.926Z,94.70
2022-08-02T05:13:20.555Z,92.26
2022-08-02T05:15:51.293Z,92.97
2022-08-02T05:18:20.345Z,94.22
2022-08-02T05:20:46.994Z,93.46
2022-08-02T05:23:14.024Z,92.44
2022-08-02T05:25:40.952Z,90.43
2022-08-02T05:28:11.393Z,88.39
2022-08-02T05:30:40.956Z,87.00
2022-08-02T05:33:14.887Z,88.43
2022-08-02T05:35:41.575Z,88.90
2022-08-02T05:38:10.924Z,87.94
2022-08-02T05:40:37.681Z,86.08
2022-08-02T05:43:21.913Z,89.00
2022-08-02T05:45:49.840Z,89.54
2022-08-02T05:48:18.700Z,89.38
2022-08-02T05:50:47.698Z,88.68
2022-08-02T05:53:39.971Z,89.21
2022-08-02T05:56:16.716Z,88.53
2022-08-02T05:59:05.805Z,88.24
2022-08-02T06:01:42.774Z,91.04
2022-08-02T06:04:13.488Z,91.17
2022-08-02T06:06:44.270Z,91.42
2022-08-02T06:09:21.816Z,90.74
2022-08-02T06:12:01.671Z,88.96
2022-08-02T06:14:32.899Z,86.48
2022-08-02T06:17:12.623Z,85.54
2022-08-02T06:19:52.336Z,86.45
2022-08-02T06:22:32.852Z,84.35
2022-08-02T06:25:04.362Z,80.62
2022-08-02T06:27:32.362Z,82.89
2022-08-02T06:30:00.089Z,82.18
2022-08-02T06:32:28.332Z,84.64
2022-08-02T06:34:55.062Z,87.12
2022-08-02T06:37:31.523Z,87.83
2022-08-02T06:40:12.097Z,89.21
2022-08-02T06:43:17.234Z,88.13
2022-08-02T06:45:43.948Z,87.50
2022-08-02T06:48:13.362Z,83.94
2022-08-02T06:50:42.025Z,83.36
2022-08-02T06:53:09.529Z,84.00
2022-08-02T06:55:43.874Z,84.19
2022-08-02T06:58:13.846Z,83.22
2022-08-02T07:00:42.240Z,82.47
2022-08-02T07:03:08.909Z,82.68
2022-08-02T07:05:37.809Z,81.50
2022-08-02T07:08:05.087Z,80.53
2022-08-02T07:10:36.455Z,80.11
2022-08-02T07:13:03.497Z,79.96
2022-08-02T07:15:30.145Z,79.14
2022-08-02T07:17:59.024Z,80.00
2022-08-02T07:20:27.920Z,79.88
2022-08-02T07:22:54.881Z,79.70
2022-08-02T07:25:23.820Z,79.04
2022-08-02T07:27:50.642Z,78.62
2022-08-02T07:30:19.288Z,76.07
2022-08-02T07:32:46.208Z,75.12
2022-08-02T07:35:16.315Z,73.85
2022-08-02T07:37:55.468Z,72.31
2022-08-02T07:40:26.332Z,70.93
2022-08-02T07:43:02.371Z,71.68
2022-08-02T07:45:36.259Z,69.67
2022-08-02T07:48:22.125Z,70.27
2022-08-02T07:50:49.449Z,69.36
2022-08-02T07:53:16.038Z,67.38
2022-08-02T07:55:47.577Z,66.60
2022-08-02T07:58:16.992Z,65.76
2022-08-02T08:00:46.177Z,64.96
2022-08-02T08:03:15.284Z,64.53
2022-08-02T08:05:44.225Z,63.63
2022-08-02T08:08:15.277Z,63.78
2022-08-02T08:10:46.303Z,62.00
2022-08-02T08:13:16.143Z,61.50
2022-08-02T08:15:52.027Z,60.37
2022-08-02T08:18:20.225Z,62.40
2022-08-02T08:20:46.797Z,61.36
2022-08-02T08:23:13.444Z,59.60
2022-08-02T08:25:42.342Z,59.45
2022-08-02T08:28:09.391Z,58.77
2022-08-02T08:30:36.243Z,57.10
2022-08-02T08:33:05.058Z,58.61
2022-08-02T08:35:34.257Z,58.82
2022-08-02T08:38:07.088Z,56.63
2022-08-02T08:40:37.206Z,56.76
2022-08-02T08:43:04.739Z,57.08
2022-08-02T08:45:33.582Z,58.69
2022-08-02T08:48:25.701Z,58.87
2022-08-02T08:51:05.914Z,56.92
2022-08-02T08:53:39.352Z,56.38
2022-08-02T08:56:10.070Z,54.75
2022-08-02T08:58:43.835Z,54.62
2022-08-02T09:01:12.601Z,54.19
2022-08-02T09:03:39.293Z,53.40
2022-08-02T09:06:06.127Z,53.57
2022-08-02T09:08:32.719Z,53.19
2022-08-02T09:11:01.768Z,52.93
2022-08-02T09:13:31.338Z,51.73
2022-08-02T09:16:14.466Z,51.25
2022-08-02T09:18:47.123Z,51.84
2022-08-02T09:21:18.764Z,54.77
2022-08-02T09:23:50.295Z,57.04
2022-08-02T09:26:24.186Z,55.26
2022-08-02T09:28:53.215Z,54.98
2022-08-02T09:31:26.072Z,53.93
2022-08-02T09:33:59.865Z,53.23
2022-08-02T09:36:43.038Z,52.78
2022-08-02T09:39:12.679Z,52.03
2022-08-02T09:41:45.471Z,52.37
2022-08-02T09:44:16.125Z,52.38
2022-08-02T09:46:47.098Z,53.02
2022-08-02T09:49:22.291Z,53.05
2022-08-02T09:51:54.560Z,52.11
2022-08-02T09:54:24.795Z,51.94
2022-08-02T09:56:55.303Z,51.87
2022-08-02T09:59:26.682Z,51.26
2022-08-02T10:02:01.963Z,50.33
2022-08-02T10:04:52.470Z,50.43
2022-08-02T10:07:22.404Z,49.15
2022-08-02T10:09:49.315Z,49.50
2022-08-02T10:12:16.146Z,47.04
2022-08-02T10:14:45.193Z,47.72
2022-08-02T10:17:17.560Z,48.09
2022-08-02T10:20:03.156Z,47.36
2022-08-02T10:22:36.380Z,47.21
2022-08-02T10:25:05.279Z,47.43
2022-08-02T10:27:43.279Z,46.77
2022-08-02T10:30:23.463Z,45.57
2022-08-02T10:32:57.564Z,45.99
2022-08-02T10:35:26.689Z,45.64
2022-08-02T10:38:03.445Z,44.84
2022-08-02T10:40:44.544Z,44.98
2022-08-02T10:43:12.288Z,43.70
2022-08-02T10:45:39.929Z,43.17
2022-08-02T10:48:11.913Z,43.58
2022-08-02T10:50:49.744Z,43.00
2022-08-02T10:53:33.247Z,43.15
2022-08-02T10:56:06.448Z,41.04
2022-08-02T10:58:36.108Z,41.49
2022-08-02T11:01:38.705Z,40.29
2022-08-02T11:04:10.510Z,39.96
2022-08-02T11:07:07.346Z,40.45
2022-08-02T11:09:34.306Z,41.21
2022-08-02T11:12:17.397Z,40.33
2022-08-02T11:15:00.353Z,39.71
2022-08-02T11:17:38.754Z,39.02
2022-08-02T11:20:10.890Z,38.46
2022-08-02T11:22:41.448Z,36.76
2022-08-02T11:26:02.268Z,36.71
2022-08-02T11:28:25.496Z,36.92
2022-08-02T11:31:03.253Z,36.39
2022-08-02T11:33:34.483Z,36.69
2022-08-02T11:36:06.041Z,36.55
2022-08-02T11:38:32.999Z,35.86
2022-08-02T11:41:00.174Z,37.10
2022-08-02T11:43:33.008Z,38.38
2022-08-02T11:46:03.927Z,37.48
2022-08-02T11:48:34.354Z,37.83
2022-08-02T11:51:06.961Z,37.14
2022-08-02T11:53:52.670Z,36.30
2022-08-02T11:56:29.487Z,37.07
2022-08-02T11:59:07.400Z,38.03
2022-08-02T12:01:45.448Z,37.75
2022-08-02T12:04:18.256Z,36.97
2022-08-02T12:06:54.572Z,38.18
2022-08-02T12:09:29.777Z,37.83
2022-08-02T12:11:57.485Z,37.08
2022-08-02T12:14:27.638Z,36.88
2022-08-02T12:17:13.696Z,36.88
2022-08-02T12:19:42.351Z,36.20
2022-08-02T12:22:19.578Z,36.08
2022-08-02T12:24:55.718Z,36.03
2022-08-02T12:27:29.346Z,36.25
2022-08-02T12:30:14.573Z,35.81
2022-08-02T12:32:41.702Z,35.46
2022-08-02T12:35:10.017Z,35.77
2022-08-02T12:37:44.684Z,35.73
2022-08-02T12:40:33.639Z,35.04
2022-08-02T12:43:03.236Z,35.04
2022-08-02T12:45:53.429Z,35.75
2022-08-02T12:48:38.579Z,35.65
2022-08-02T12:51:50.856Z,37.40
2022-08-02T12:54:39.091Z,36.57
2022-08-02T12:57:16.220Z,36.54
2022-08-02T12:59:49.199Z,36.42
2022-08-02T13:02:21.414Z,36.41
2022-08-02T13:04:51.095Z,35.85
2022-08-02T13:07:23.803Z,35.86
2022-08-02T13:09:50.454Z,35.24
2022-08-02T13:12:21.633Z,35.66
2022-08-02T13:14:48.259Z,34.80
2022-08-02T13:17:17.090Z,35.61
2022-08-02T13:19:43.667Z,34.18
2022-08-02T13:22:10.936Z,32.05
2022-08-02T13:24:54.986Z,32.82
2022-08-02T13:27:26.254Z,32.67
2022-08-02T13:29:57.074Z,33.58
2022-08-02T13:32:25.071Z,33.37
2022-08-02T13:34:53.894Z,33.53
2022-08-02T13:37:20.873Z,32.85
2022-08-02T13:40:11.915Z,32.33
2022-08-02T13:42:39.013Z,33.24
2022-08-02T13:45:12.110Z,31.94
2022-08-02T13:48:03.432Z,31.74
2022-08-02T13:50:31.561Z,31.27
2022-08-02T13:52:58.128Z,32.33
2022-08-02T13:55:32.034Z,32.36
2022-08-02T13:57:59.310Z,31.51
2022-08-02T14:00:35.208Z,31.36
2022-08-02T14:03:06.187Z,31.29
2022-08-02T14:05:38.707Z,30.72
2022-08-02T14:08:16.595Z,30.89
2022-08-02T14:10:44.061Z,30.74
2022-08-02T14:13:10.714Z,31.03
2022-08-02T14:15:37.704Z,30.38
2022-08-02T14:18:06.589Z,29.79
2022-08-02T14:20:33.185Z,29.89
2022-08-02T14:22:59.793Z,29.31
2022-08-02T14:25:28.644Z,29.46
2022-08-02T14:27:57.777Z,28.95
2022-08-02T14:30:31.681Z,29.12
2022-08-02T14:32:58.746Z,28.35
2022-08-02T14:35:25.277Z,29.05
2022-08-02T14:37:52.294Z,29.25
2022-08-02T14:40:27.771Z,29.82
2022-08-02T14:42:55.092Z,28.31
2022-08-02T14:45:26.151Z,28.50
2022-08-02T14:48:05.904Z,28.10
2022-08-02T14:50:34.701Z,27.60
2022-08-02T14:53:01.328Z,27.10
2022-08-02T14:55:33.104Z,27.19
2022-08-02T14:57:59.805Z,27.78
2022-08-02T15:00:26.403Z,27.44
2022-08-02T15:02:58.503Z,27.06
2022-08-02T15:05:25.072Z,27.22
2022-08-02T15:07:54.086Z,27.10
2022-08-02T15:10:20.769Z,26.63
2022-08-02T15:12:47.395Z,26.93
2022-08-02T15:15:16.481Z,26.43
2022-08-02T15:17:43.075Z,26.58
2022-08-02T15:20:25.379Z,26.25
2022-08-02T15:22:52.743Z,26.53
2022-08-02T15:25:19.669Z,26.31
2022-08-02T15:27:49.390Z,25.99
2022-08-02T15:30:16.527Z,26.38
2022-08-02T15:32:52.679Z,26.09
2022-08-02T15:35:22.530Z,25.74
2022-08-02T15:37:49.135Z,26.12
2022-08-02T15:40:17.905Z,26.69
2022-08-02T15:42:44.557Z,26.89
2022-08-02T15:45:13.107Z,26.35
2022-08-02T15:47:48.227Z,26.84
2022-08-02T15:50:17.769Z,27.43
2022-08-02T15:52:49.602Z,27.00
2022-08-02T15:55:19.499Z,26.85
2022-08-02T15:57:48.700Z,26.92
2022-08-02T16:00:19.199Z,27.29
2022-08-02T16:02:47.398Z,27.60
2022-08-02T16:05:15.250Z,26.62
2022-08-02T16:07:42.055Z,27.11
2022-08-02T16:10:11.668Z,26.84
2022-08-02T16:12:42.766Z,27.05
2022-08-02T16:15:09.866Z,26.74
2022-08-02T16:17:48.739Z,26.85
2022-08-02T16:20:21.045Z,26.88
2022-08-02T16:22:47.629Z,27.03
2022-08-02T16:25:17.449Z,26.77
2022-08-02T16:28:06.498Z,27.68
2022-08-02T16:30:32.812Z,26.86
2022-08-02T16:33:04.033Z,27.13
2022-08-02T16:35:30.710Z,26.65
2022-08-02T16:37:57.331Z,27.01
2022-08-02T16:40:24.100Z,27.16
2022-08-02T16:42:55.500Z,27.42
2022-08-02T16:45:24.502Z,27.16
2022-08-02T16:47:55.947Z,26.83
2022-08-02T16:50:29.105Z,27.46
2022-08-02T16:52:57.979Z,27.04
2022-08-02T16:55:24.793Z,27.43
2022-08-02T16:57:51.443Z,27.48
2022-08-02T17:00:26.151Z,28.09
2022-08-02T17:02:53.190Z,27.75
2022-08-02T17:05:21.071Z,27.84
2022-08-02T17:08:08.328Z,27.70
2022-08-02T17:10:39.869Z,28.00
2022-08-02T17:16:17.105Z,27.91
2022-08-02T17:18:47.113Z,28.40
2022-08-02T17:21:15.963Z,27.99
2022-08-02T17:24:05.153Z,26.83
2022-08-02T17:26:37.335Z,28.28
2022-08-02T17:29:16.921Z,28.26
2022-08-02T17:32:04.988Z,28.21
2022-08-02T17:34:36.126Z,28.51
2022-08-02T17:37:05.509Z,28.62
2022-08-02T17:39:44.131Z,28.90
2022-08-02T17:42:19.808Z,29.22
2022-08-02T17:44:50.056Z,29.23
2022-08-02T17:47:18.245Z,30.04
2022-08-02T17:49:48.551Z,29.38
2022-08-02T17:52:50.948Z,29.50
2022-08-02T17:55:10.672Z,29.88
2022-08-02T17:57:56.129Z,30.88
2022-08-02T18:00:26.885Z,30.92
2022-08-02T18:02:56.666Z,31.54
2022-08-02T18:05:40.179Z,31.21
2022-08-02T18:08:10.874Z,32.87
2022-08-02T18:10:41.126Z,33.26
2022-08-02T18:13:09.942Z,34.52
2022-08-02T18:15:38.659Z,35.42
2022-08-02T18:18:07.552Z,35.33
2022-08-02T18:20:34.302Z,35.81
2022-08-02T18:23:03.837Z,35.35
2022-08-02T18:25:37.785Z,36.17
2022-08-02T18:28:13.627Z,35.92
2022-08-02T18:30:45.166Z,36.54
2022-08-02T18:33:55.766Z,37.13
2022-08-02T18:35:58.426Z,37.47
2022-08-02T18:38:26.984Z,37.43
2022-08-02T18:40:59.660Z,37.60
2022-08-02T18:43:29.425Z,38.13
2022-08-02T18:46:07.348Z,38.61
2022-08-02T18:48:48.026Z,38.92
2022-08-02T18:51:18.740Z,38.16
2022-08-02T18:53:51.472Z,38.29
2022-08-02T18:56:20.327Z,38.35
2022-08-02T18:58:56.048Z,38.08
2022-08-02T19:01:32.184Z,39.04
2022-08-02T19:04:02.966Z,38.62
2022-08-02T19:06:35.040Z,39.08
2022-08-02T19:09:11.553Z,40.20
2022-08-02T19:11:48.186Z,42.58
2022-08-02T19:14:24.316Z,40.87
2022-08-02T19:16:59.626Z,41.19
2022-08-02T19:19:29.609Z,40.10
2022-08-02T19:22:18.529Z,40.43
2022-08-02T19:24:47.767Z,41.98
2022-08-02T19:27:26.126Z,40.36
2022-08-02T19:29:58.888Z,42.72
2022-08-02T19:32:41.214Z,40.76
2022-08-02T19:35:30.738Z,40.92
2022-08-02T19:38:07.464Z,40.64
2022-08-02T19:40:36.852Z,40.61
2022-08-02T19:44:25.693Z,40.05
2022-08-02T19:45:57.137Z,40.13
2022-08-02T19:48:25.482Z,40.57
2022-08-02T19:50:59.170Z,40.39
2022-08-02T19:53:28.749Z,40.73
2022-08-02T19:56:02.785Z,41.51
2022-08-02T19:58:32.581Z,41.54
2022-08-02T20:00:59.391Z,41.51
2022-08-02T20:03:52.211Z,41.20
2022-08-02T20:06:15.909Z,41.85
2022-08-02T20:08:53.028Z,42.26
2022-08-02T20:11:24.785Z,43.09
2022-08-02T20:13:52.365Z,42.67
2022-08-02T20:16:27.796Z,43.82
2022-08-02T20:18:56.688Z,42.53
2022-08-02T20:21:36.335Z,42.35
2022-08-02T20:24:10.009Z,43.23
2022-08-02T20:26:38.141Z,42.76
2022-08-02T20:29:07.834Z,44.23
2022-08-02T20:31:37.417Z,43.25
2022-08-02T20:34:04.297Z,42.98
2022-08-02T20:36:31.457Z,44.96
2022-08-02T20:38:58.202Z,46.24
2022-08-02T20:41:36.577Z,44.57
2022-08-02T20:44:15.802Z,44.45
2022-08-02T20:46:56.690Z,44.35
2022-08-02T20:49:40.519Z,44.72
2022-08-02T20:52:23.601Z,44.75
2022-08-02T20:54:53.770Z,44.70
2022-08-02T20:57:20.557Z,47.38
2022-08-02T21:00:08.828Z,47.64
2022-08-02T21:02:37.870Z,45.49
2022-08-02T21:05:08.051Z,46.51
2022-08-02T21:07:47.592Z,46.00
2022-08-02T21:10:15.499Z,46.33
2022-08-02T21:12:42.535Z,47.55
2022-08-02T21:15:12.458Z,47.84
2022-08-02T21:17:52.215Z,47.76
2022-08-02T21:20:29.290Z,47.32
2022-08-02T21:22:56.824Z,47.34
2022-08-02T21:25:23.883Z,47.58
2022-08-02T21:28:09.599Z,47.84
2022-08-02T21:30:44.083Z,49.09
2022-08-02T21:33:23.102Z,49.77
2022-08-02T21:35:55.143Z,50.50
2022-08-02T21:38:35.541Z,51.39
2022-08-02T21:41:11.971Z,50.89
2022-08-02T21:43:39.090Z,50.90
2022-08-02T21:46:08.808Z,51.98
2022-08-02T21:48:35.792Z,52.34
2022-08-02T21:51:04.053Z,51.87
2022-08-02T21:53:42.870Z,53.15
2022-08-02T21:56:10.574Z,52.66
2022-08-02T21:58:37.611Z,52.15
2022-08-02T22:01:04.939Z,52.29
2022-08-02T22:03:32.363Z,52.94
2022-08-02T22:05:59.523Z,53.17
2022-08-02T22:08:26.101Z,53.06
2022-08-02T22:11:03.911Z,54.93
2022-08-02T22:13:38.627Z,54.25
2022-08-02T22:16:19.058Z,53.92
2022-08-02T22:18:51.444Z,54.64
2022-08-02T22:21:19.843Z,54.85
2022-08-02T22:23:51.992Z,54.71
2022-08-02T22:26:23.561Z,55.24
2022-08-02T22:28:59.511Z,55.73
2022-08-02T22:31:36.201Z,56.86
2022-08-02T22:34:26.994Z,56.04
2022-08-02T22:36:55.232Z,56.39
2022-08-02T22:39:24.513Z,56.66
2022-08-02T22:42:05.710Z,57.00
2022-08-02T22:44:36.417Z,56.44
2022-08-02T22:47:06.951Z,56.71
2022-08-02T22:49:45.371Z,57.39
2022-08-02T22:52:21.996Z,58.19
2022-08-02T22:54:51.773Z,59.93
2022-08-02T22:57:30.604Z,59.77
2022-08-02T22:58:37.495Z,28.53
2022-08-02T23:00:01.010Z,59.53
2022-08-02T23:02:27.658Z,59.26
2022-08-02T23:04:54.772Z,59.36
2022-08-02T23:07:23.994Z,59.65
2022-08-02T23:09:53.565Z,59.67
2022-08-02T23:12:22.647Z,60.38
2022-08-02T23:14:51.217Z,60.75
2022-08-02T23:17:37.414Z,60.97
2022-08-02T23:20:10.397Z,60.89
2022-08-02T23:22:37.749Z,60.68
2022-08-02T23:25:06.773Z,60.94
2022-08-02T23:27:34.086Z,61.20
2022-08-02T23:30:01.632Z,61.56
2022-08-02T23:32:28.489Z,61.97
2022-08-02T23:34:58.035Z,61.82
2022-08-02T23:37:25.031Z,62.75
2022-08-02T23:39:53.728Z,62.13
2022-08-02T23:42:25.413Z,62.59
2022-08-02T23:44:53.393Z,63.41
2022-08-02T23:47:22.675Z,63.09
2022-08-02T23:49:51.745Z,63.70
2022-08-02T23:52:24.913Z,63.24
2022-08-02T23:54:51.918Z,62.80
2022-08-02T23:57:20.042Z,63.22
2022-08-02T23:59:52.612Z,63.26
